sensor_id;sensor_type;location;lat;lon;timestamp;temperature;humidity
64634;DHT22;51043;52.406;9.690;2024-01-30T00:01:41;4.70;99.90
64634;DHT22;51043;52.406;9.690;2024-01-30T00:04:09;4.70;99.90
64634;DHT22;51043;52.406;9.690;2024-01-30T00:06:37;4.70;99.90
64634;DHT22;51043;52.406;9.690;2024-01-30T00:09:07;4.70;99.90
64634;DHT22;51043;52.406;9.690;2024-01-30T00:11:36;4.80;99.90
64634;DHT22;51043;52.406;9.690;2024-01-30T00:14:05;4.80;99.90
64634;DHT22;51043;52.406;9.690;2024-01-30T00:16:33;4.80;99.90
64634;DHT22;51043;52.406;9.690;2024-01-30T00:19:02;4.80;99.90
64634;DHT22;51043;52.406;9.690;2024-01-30T00:21:30;4.80;99.90
64634;DHT22;51043;52.406;9.690;2024-01-30T00:23:58;4.80;99.90
64634;DHT22;51043;52.406;9.690;2024-01-30T00:26:31;4.80;99.90
64634;DHT22;51043;52.406;9.690;2024-01-30T00:29:00;4.80;99.90
64634;DHT22;51043;52.406;9.690;2024-01-30T00:31:28;4.80;99.90
64634;DHT22;51043;52.406;9.690;2024-01-30T00:33:56;4.80;99.90
64634;DHT22;51043;52.406;9.690;2024-01-30T00:36:24;4.80;99.90
64634;DHT22;51043;52.406;9.690;2024-01-30T00:38:52;4.80;99.90
64634;DHT22;51043;52.406;9.690;2024-01-30T00:41:20;4.80;99.90
64634;DHT22;51043;52.406;9.690;2024-01-30T00:43:49;4.90;99.90
64634;DHT22;51043;52.406;9.690;2024-01-30T00:46:19;4.80;99.90
64634;DHT22;51043;52.406;9.690;2024-01-30T00:48:48;4.70;99.90
64634;DHT22;51043;52.406;9.690;2024-01-30T00:51:17;4.70;99.90
64634;DHT22;51043;52.406;9.690;2024-01-30T00:53:46;4.60;99.90
64634;DHT22;51043;52.406;9.690;2024-01-30T00:56:14;4.60;99.90
64634;DHT22;51043;52.406;9.690;2024-01-30T00:58:45;4.70;99.90
64634;DHT22;51043;52.406;9.690;2024-01-30T01:01:14;4.70;99.90
64634;DHT22;51043;52.406;9.690;2024-01-30T01:03:43;4.80;99.90
64634;DHT22;51043;52.406;9.690;2024-01-30T01:06:11;4.80;99.90
64634;DHT22;51043;52.406;9.690;2024-01-30T01:08:39;4.80;99.90
64634;DHT22;51043;52.406;9.690;2024-01-30T01:11:07;4.80;99.90
64634;DHT22;51043;52.406;9.690;2024-01-30T01:13:36;4.70;99.90
64634;DHT22;51043;52.406;9.690;2024-01-30T01:16:04;4.60;99.90
64634;DHT22;51043;52.406;9.690;2024-01-30T01:18:34;4.60;99.90
64634;DHT22;51043;52.406;9.690;2024-01-30T01:21:02;4.50;99.90
64634;DHT22;51043;52.406;9.690;2024-01-30T01:23:31;4.50;99.90
64634;DHT22;51043;52.406;9.690;2024-01-30T01:25:59;4.50;99.90
64634;DHT22;51043;52.406;9.690;2024-01-30T01:28:27;4.50;99.90
64634;DHT22;51043;52.406;9.690;2024-01-30T01:30:56;4.50;99.90
64634;DHT22;51043;52.406;9.690;2024-01-30T01:33:31;4.50;99.90
64634;DHT22;51043;52.406;9.690;2024-01-30T01:36:01;4.50;99.90
64634;DHT22;51043;52.406;9.690;2024-01-30T01:38:30;4.40;99.90
64634;DHT22;51043;52.406;9.690;2024-01-30T01:40:58;4.50;99.90
64634;DHT22;51043;52.406;9.690;2024-01-30T01:43:26;4.60;99.90
64634;DHT22;51043;52.406;9.690;2024-01-30T01:45:54;4.70;99.90
64634;DHT22;51043;52.406;9.690;2024-01-30T01:48:22;4.70;99.90
64634;DHT22;51043;52.406;9.690;2024-01-30T01:50:51;4.80;99.90
64634;DHT22;51043;52.406;9.690;2024-01-30T01:53:21;4.80;99.90
64634;DHT22;51043;52.406;9.690;2024-01-30T01:55:49;4.90;99.90
64634;DHT22;51043;52.406;9.690;2024-01-30T01:58:19;4.90;99.90
64634;DHT22;51043;52.406;9.690;2024-01-30T02:00:49;4.90;99.90
64634;DHT22;51043;52.406;9.690;2024-01-30T02:03:18;4.90;99.90
64634;DHT22;51043;52.406;9.690;2024-01-30T02:05:49;4.90;99.90
64634;DHT22;51043;52.406;9.690;2024-01-30T02:08:18;5.00;99.90
64634;DHT22;51043;52.406;9.690;2024-01-30T02:10:48;5.00;99.90
64634;DHT22;51043;52.406;9.690;2024-01-30T02:13:18;5.00;99.90
64634;DHT22;51043;52.406;9.690;2024-01-30T02:15:49;5.10;99.90
64634;DHT22;51043;52.406;9.690;2024-01-30T02:18:19;5.10;99.90
64634;DHT22;51043;52.406;9.690;2024-01-30T02:20:47;5.10;99.90
64634;DHT22;51043;52.406;9.690;2024-01-30T02:23:19;5.20;99.90
64634;DHT22;51043;52.406;9.690;2024-01-30T02:25:48;5.20;99.90
64634;DHT22;51043;52.406;9.690;2024-01-30T02:28:16;5.20;99.90
64634;DHT22;51043;52.406;9.690;2024-01-30T02:30:46;5.20;99.90
64634;DHT22;51043;52.406;9.690;2024-01-30T02:33:14;5.20;99.90
64634;DHT22;51043;52.406;9.690;2024-01-30T02:35:44;5.20;99.90
64634;DHT22;51043;52.406;9.690;2024-01-30T02:38:12;5.10;99.90
64634;DHT22;51043;52.406;9.690;2024-01-30T02:40:42;5.10;99.90
64634;DHT22;51043;52.406;9.690;2024-01-30T02:43:10;5.10;99.90
64634;DHT22;51043;52.406;9.690;2024-01-30T02:45:38;5.20;99.90
64634;DHT22;51043;52.406;9.690;2024-01-30T02:48:07;5.20;99.90
64634;DHT22;51043;52.406;9.690;2024-01-30T02:50:35;5.20;99.90
64634;DHT22;51043;52.406;9.690;2024-01-30T02:53:03;5.30;99.90
64634;DHT22;51043;52.406;9.690;2024-01-30T02:55:31;5.30;99.90
64634;DHT22;51043;52.406;9.690;2024-01-30T02:58:00;5.50;99.90
64634;DHT22;51043;52.406;9.690;2024-01-30T03:00:29;5.40;99.90
64634;DHT22;51043;52.406;9.690;2024-01-30T03:02:57;5.40;99.90
64634;DHT22;51043;52.406;9.690;2024-01-30T03:05:25;5.50;99.90
64634;DHT22;51043;52.406;9.690;2024-01-30T03:07:53;5.40;99.90
64634;DHT22;51043;52.406;9.690;2024-01-30T03:10:21;5.40;99.90
64634;DHT22;51043;52.406;9.690;2024-01-30T03:12:49;5.40;99.90
64634;DHT22;51043;52.406;9.690;2024-01-30T03:15:19;5.30;99.90
64634;DHT22;51043;52.406;9.690;2024-01-30T03:17:47;5.20;99.90
64634;DHT22;51043;52.406;9.690;2024-01-30T03:20:15;5.20;99.90
64634;DHT22;51043;52.406;9.690;2024-01-30T03:22:43;5.20;99.90
64634;DHT22;51043;52.406;9.690;2024-01-30T03:25:11;5.20;99.90
64634;DHT22;51043;52.406;9.690;2024-01-30T03:27:40;5.20;99.90
64634;DHT22;51043;52.406;9.690;2024-01-30T03:30:08;5.20;99.90
64634;DHT22;51043;52.406;9.690;2024-01-30T03:32:37;5.10;99.90
64634;DHT22;51043;52.406;9.690;2024-01-30T03:35:07;5.10;99.90
64634;DHT22;51043;52.406;9.690;2024-01-30T03:37:36;5.00;99.90
64634;DHT22;51043;52.406;9.690;2024-01-30T03:40:08;4.90;99.90
64634;DHT22;51043;52.406;9.690;2024-01-30T03:42:36;4.80;99.90
64634;DHT22;51043;52.406;9.690;2024-01-30T03:45:06;4.80;99.90
64634;DHT22;51043;52.406;9.690;2024-01-30T03:47:34;4.70;99.90
64634;DHT22;51043;52.406;9.690;2024-01-30T03:50:04;4.70;99.90
64634;DHT22;51043;52.406;9.690;2024-01-30T03:52:32;4.60;99.90
64634;DHT22;51043;52.406;9.690;2024-01-30T03:55:01;4.50;99.90
64634;DHT22;51043;52.406;9.690;2024-01-30T03:57:29;4.50;99.90
64634;DHT22;51043;52.406;9.690;2024-01-30T03:59:57;4.40;99.90
64634;DHT22;51043;52.406;9.690;2024-01-30T04:02:26;4.50;99.90
64634;DHT22;51043;52.406;9.690;2024-01-30T04:04:54;4.50;99.90
64634;DHT22;51043;52.406;9.690;2024-01-30T04:07:24;4.50;99.90
64634;DHT22;51043;52.406;9.690;2024-01-30T04:09:52;4.60;99.90
64634;DHT22;51043;52.406;9.690;2024-01-30T04:12:23;4.60;99.90
64634;DHT22;51043;52.406;9.690;2024-01-30T04:14:52;4.50;99.90
64634;DHT22;51043;52.406;9.690;2024-01-30T04:17:21;4.60;99.90
64634;DHT22;51043;52.406;9.690;2024-01-30T04:19:49;4.60;99.90
64634;DHT22;51043;52.406;9.690;2024-01-30T04:22:18;4.60;99.90
64634;DHT22;51043;52.406;9.690;2024-01-30T04:24:48;4.50;99.90
64634;DHT22;51043;52.406;9.690;2024-01-30T04:27:17;4.40;99.90
64634;DHT22;51043;52.406;9.690;2024-01-30T04:29:46;4.40;99.90
64634;DHT22;51043;52.406;9.690;2024-01-30T04:32:14;4.40;99.90
64634;DHT22;51043;52.406;9.690;2024-01-30T04:34:42;4.40;99.90
64634;DHT22;51043;52.406;9.690;2024-01-30T04:37:10;4.30;99.90
64634;DHT22;51043;52.406;9.690;2024-01-30T04:39:38;4.20;99.90
64634;DHT22;51043;52.406;9.690;2024-01-30T04:42:09;4.20;99.90
64634;DHT22;51043;52.406;9.690;2024-01-30T04:44:37;4.10;99.90
64634;DHT22;51043;52.406;9.690;2024-01-30T04:47:05;4.10;99.90
64634;DHT22;51043;52.406;9.690;2024-01-30T04:49:36;4.00;99.90
64634;DHT22;51043;52.406;9.690;2024-01-30T04:52:04;4.00;99.90
64634;DHT22;51043;52.406;9.690;2024-01-30T04:54:33;3.90;99.90
64634;DHT22;51043;52.406;9.690;2024-01-30T04:57:01;3.80;99.90
64634;DHT22;51043;52.406;9.690;2024-01-30T04:59:31;3.80;99.90
64634;DHT22;51043;52.406;9.690;2024-01-30T05:01:59;3.80;99.90
64634;DHT22;51043;52.406;9.690;2024-01-30T05:04:27;3.70;99.90
64634;DHT22;51043;52.406;9.690;2024-01-30T05:06:55;3.70;99.90
64634;DHT22;51043;52.406;9.690;2024-01-30T05:09:24;3.70;99.90
64634;DHT22;51043;52.406;9.690;2024-01-30T05:11:52;3.70;99.90
64634;DHT22;51043;52.406;9.690;2024-01-30T05:14:20;3.70;99.90
64634;DHT22;51043;52.406;9.690;2024-01-30T05:16:50;3.70;99.90
64634;DHT22;51043;52.406;9.690;2024-01-30T05:19:18;3.80;99.90
64634;DHT22;51043;52.406;9.690;2024-01-30T05:21:47;4.00;99.90
64634;DHT22;51043;52.406;9.690;2024-01-30T05:24:15;4.20;99.90
64634;DHT22;51043;52.406;9.690;2024-01-30T05:26:44;4.30;99.90
64634;DHT22;51043;52.406;9.690;2024-01-30T05:29:14;4.40;99.90
64634;DHT22;51043;52.406;9.690;2024-01-30T05:31:42;4.50;99.90
64634;DHT22;51043;52.406;9.690;2024-01-30T05:34:12;4.50;99.90
64634;DHT22;51043;52.406;9.690;2024-01-30T05:36:40;4.60;99.90
64634;DHT22;51043;52.406;9.690;2024-01-30T05:39:08;4.70;99.90
64634;DHT22;51043;52.406;9.690;2024-01-30T05:41:36;4.70;99.90
64634;DHT22;51043;52.406;9.690;2024-01-30T05:44:04;4.90;99.90
64634;DHT22;51043;52.406;9.690;2024-01-30T05:46:33;4.90;99.90
64634;DHT22;51043;52.406;9.690;2024-01-30T05:49:03;4.90;99.90
64634;DHT22;51043;52.406;9.690;2024-01-30T05:51:32;5.00;99.90
64634;DHT22;51043;52.406;9.690;2024-01-30T05:54:00;4.90;99.90
64634;DHT22;51043;52.406;9.690;2024-01-30T05:56:30;4.90;99.90
64634;DHT22;51043;52.406;9.690;2024-01-30T05:58:58;4.90;99.90
64634;DHT22;51043;52.406;9.690;2024-01-30T06:01:26;4.90;99.90
64634;DHT22;51043;52.406;9.690;2024-01-30T06:03:56;4.80;99.90
64634;DHT22;51043;52.406;9.690;2024-01-30T06:06:24;4.80;99.90
64634;DHT22;51043;52.406;9.690;2024-01-30T06:08:55;4.70;99.90
64634;DHT22;51043;52.406;9.690;2024-01-30T06:11:24;4.70;99.90
64634;DHT22;51043;52.406;9.690;2024-01-30T06:13:52;4.70;99.90
64634;DHT22;51043;52.406;9.690;2024-01-30T06:16:20;4.70;99.90
64634;DHT22;51043;52.406;9.690;2024-01-30T06:18:49;4.60;99.90
64634;DHT22;51043;52.406;9.690;2024-01-30T06:21:18;4.70;99.90
64634;DHT22;51043;52.406;9.690;2024-01-30T06:23:46;4.70;99.90
64634;DHT22;51043;52.406;9.690;2024-01-30T06:26:16;4.80;99.90
64634;DHT22;51043;52.406;9.690;2024-01-30T06:28:44;4.80;99.90
64634;DHT22;51043;52.406;9.690;2024-01-30T06:31:12;4.80;99.90
64634;DHT22;51043;52.406;9.690;2024-01-30T06:33:40;4.80;99.90
64634;DHT22;51043;52.406;9.690;2024-01-30T06:36:08;4.70;99.90
64634;DHT22;51043;52.406;9.690;2024-01-30T06:38:37;4.80;99.90
64634;DHT22;51043;52.406;9.690;2024-01-30T06:41:05;4.80;99.90
64634;DHT22;51043;52.406;9.690;2024-01-30T06:43:38;4.80;99.90
64634;DHT22;51043;52.406;9.690;2024-01-30T06:46:06;4.80;99.90
64634;DHT22;51043;52.406;9.690;2024-01-30T06:48:34;4.90;99.90
64634;DHT22;51043;52.406;9.690;2024-01-30T06:51:02;5.00;99.90
64634;DHT22;51043;52.406;9.690;2024-01-30T06:53:30;5.10;99.90
64634;DHT22;51043;52.406;9.690;2024-01-30T06:55:58;5.20;99.90
64634;DHT22;51043;52.406;9.690;2024-01-30T06:58:27;5.20;99.90
64634;DHT22;51043;52.406;9.690;2024-01-30T07:00:56;5.20;99.90
64634;DHT22;51043;52.406;9.690;2024-01-30T07:03:24;5.30;99.90
64634;DHT22;51043;52.406;9.690;2024-01-30T07:05:53;5.30;99.90
64634;DHT22;51043;52.406;9.690;2024-01-30T07:08:21;5.40;99.90
64634;DHT22;51043;52.406;9.690;2024-01-30T07:10:49;5.40;99.90
64634;DHT22;51043;52.406;9.690;2024-01-30T07:13:24;5.40;99.90
64634;DHT22;51043;52.406;9.690;2024-01-30T07:15:52;5.40;99.90
64634;DHT22;51043;52.406;9.690;2024-01-30T07:18:23;5.40;99.90
64634;DHT22;51043;52.406;9.690;2024-01-30T07:20:51;5.40;99.90
64634;DHT22;51043;52.406;9.690;2024-01-30T07:23:19;5.40;99.90
64634;DHT22;51043;52.406;9.690;2024-01-30T07:25:53;5.40;99.90
64634;DHT22;51043;52.406;9.690;2024-01-30T07:28:24;5.40;99.90
64634;DHT22;51043;52.406;9.690;2024-01-30T07:30:52;5.40;99.90
64634;DHT22;51043;52.406;9.690;2024-01-30T07:33:22;5.40;99.90
64634;DHT22;51043;52.406;9.690;2024-01-30T07:35:52;5.50;99.90
64634;DHT22;51043;52.406;9.690;2024-01-30T07:38:22;5.50;99.90
64634;DHT22;51043;52.406;9.690;2024-01-30T07:40:51;5.50;99.90
64634;DHT22;51043;52.406;9.690;2024-01-30T07:43:19;5.60;99.90
64634;DHT22;51043;52.406;9.690;2024-01-30T07:45:50;5.60;99.90
64634;DHT22;51043;52.406;9.690;2024-01-30T07:48:21;5.60;99.90
64634;DHT22;51043;52.406;9.690;2024-01-30T07:50:52;5.60;99.90
64634;DHT22;51043;52.406;9.690;2024-01-30T07:53:21;5.70;99.90
64634;DHT22;51043;52.406;9.690;2024-01-30T07:55:50;5.80;99.90
64634;DHT22;51043;52.406;9.690;2024-01-30T07:58:18;5.90;99.90
64634;DHT22;51043;52.406;9.690;2024-01-30T08:00:47;5.90;99.90
64634;DHT22;51043;52.406;9.690;2024-01-30T08:03:15;6.00;99.90
64634;DHT22;51043;52.406;9.690;2024-01-30T08:05:46;6.00;99.90
64634;DHT22;51043;52.406;9.690;2024-01-30T08:08:14;6.20;99.90
64634;DHT22;51043;52.406;9.690;2024-01-30T08:10:42;6.30;99.90
64634;DHT22;51043;52.406;9.690;2024-01-30T08:13:10;6.30;99.90
64634;DHT22;51043;52.406;9.690;2024-01-30T08:15:38;6.40;99.90
64634;DHT22;51043;52.406;9.690;2024-01-30T08:18:06;6.50;99.90
64634;DHT22;51043;52.406;9.690;2024-01-30T08:20:35;6.60;99.90
64634;DHT22;51043;52.406;9.690;2024-01-30T08:23:04;6.60;99.90
64634;DHT22;51043;52.406;9.690;2024-01-30T08:25:33;6.70;99.90
64634;DHT22;51043;52.406;9.690;2024-01-30T08:28:03;6.70;99.90
64634;DHT22;51043;52.406;9.690;2024-01-30T08:30:36;6.70;99.90
64634;DHT22;51043;52.406;9.690;2024-01-30T08:33:06;6.80;99.90
64634;DHT22;51043;52.406;9.690;2024-01-30T08:35:34;6.80;99.90
64634;DHT22;51043;52.406;9.690;2024-01-30T08:38:09;6.80;99.90
64634;DHT22;51043;52.406;9.690;2024-01-30T08:40:39;6.80;99.90
64634;DHT22;51043;52.406;9.690;2024-01-30T08:43:09;6.80;99.90
64634;DHT22;51043;52.406;9.690;2024-01-30T08:45:38;6.80;99.90
64634;DHT22;51043;52.406;9.690;2024-01-30T08:48:07;6.90;99.90
64634;DHT22;51043;52.406;9.690;2024-01-30T08:50:38;6.90;99.90
64634;DHT22;51043;52.406;9.690;2024-01-30T08:53:08;7.00;99.90
64634;DHT22;51043;52.406;9.690;2024-01-30T08:55:37;7.10;99.90
64634;DHT22;51043;52.406;9.690;2024-01-30T08:58:06;7.10;99.90
64634;DHT22;51043;52.406;9.690;2024-01-30T09:00:34;7.20;99.90
64634;DHT22;51043;52.406;9.690;2024-01-30T09:03:03;7.30;99.90
64634;DHT22;51043;52.406;9.690;2024-01-30T09:05:31;7.30;99.90
64634;DHT22;51043;52.406;9.690;2024-01-30T09:07:59;7.40;99.90
64634;DHT22;51043;52.406;9.690;2024-01-30T09:10:29;7.50;99.90
64634;DHT22;51043;52.406;9.690;2024-01-30T09:12:57;7.60;99.90
64634;DHT22;51043;52.406;9.690;2024-01-30T09:15:25;7.70;99.90
64634;DHT22;51043;52.406;9.690;2024-01-30T09:17:54;7.80;99.90
64634;DHT22;51043;52.406;9.690;2024-01-30T09:20:23;7.90;99.90
64634;DHT22;51043;52.406;9.690;2024-01-30T09:22:53;8.10;99.90
64634;DHT22;51043;52.406;9.690;2024-01-30T09:25:23;8.20;99.90
64634;DHT22;51043;52.406;9.690;2024-01-30T09:27:57;8.30;99.90
64634;DHT22;51043;52.406;9.690;2024-01-30T09:30:26;8.30;99.90
64634;DHT22;51043;52.406;9.690;2024-01-30T09:32:55;8.30;99.90
64634;DHT22;51043;52.406;9.690;2024-01-30T09:35:27;8.30;99.90
64634;DHT22;51043;52.406;9.690;2024-01-30T09:37:55;8.30;99.90
64634;DHT22;51043;52.406;9.690;2024-01-30T09:40:27;8.40;99.90
64634;DHT22;51043;52.406;9.690;2024-01-30T09:42:59;8.50;99.90
64634;DHT22;51043;52.406;9.690;2024-01-30T09:45:31;8.60;99.90
64634;DHT22;51043;52.406;9.690;2024-01-30T09:48:02;8.70;99.90
64634;DHT22;51043;52.406;9.690;2024-01-30T09:50:31;8.80;99.90
64634;DHT22;51043;52.406;9.690;2024-01-30T09:53:02;8.80;99.90
64634;DHT22;51043;52.406;9.690;2024-01-30T09:55:30;8.80;99.90
64634;DHT22;51043;52.406;9.690;2024-01-30T09:58:00;8.80;99.90
64634;DHT22;51043;52.406;9.690;2024-01-30T10:00:28;8.80;99.90
64634;DHT22;51043;52.406;9.690;2024-01-30T10:02:56;8.70;99.90
64634;DHT22;51043;52.406;9.690;2024-01-30T10:05:26;8.90;99.90
64634;DHT22;51043;52.406;9.690;2024-01-30T10:07:56;8.90;99.90
64634;DHT22;51043;52.406;9.690;2024-01-30T10:10:27;9.00;99.90
64634;DHT22;51043;52.406;9.690;2024-01-30T10:12:56;9.00;99.90
64634;DHT22;51043;52.406;9.690;2024-01-30T10:15:28;9.10;99.90
64634;DHT22;51043;52.406;9.690;2024-01-30T10:17:56;9.20;99.90
64634;DHT22;51043;52.406;9.690;2024-01-30T10:20:25;9.50;99.90
64634;DHT22;51043;52.406;9.690;2024-01-30T10:22:54;9.60;99.90
64634;DHT22;51043;52.406;9.690;2024-01-30T10:25:22;9.90;99.90
64634;DHT22;51043;52.406;9.690;2024-01-30T10:27:53;10.00;99.90
64634;DHT22;51043;52.406;9.690;2024-01-30T10:30:22;10.20;99.90
64634;DHT22;51043;52.406;9.690;2024-01-30T10:32:52;10.40;99.90
64634;DHT22;51043;52.406;9.690;2024-01-30T10:35:21;10.60;99.90
64634;DHT22;51043;52.406;9.690;2024-01-30T10:37:49;10.70;99.90
64634;DHT22;51043;52.406;9.690;2024-01-30T10:40:19;10.80;99.90
64634;DHT22;51043;52.406;9.690;2024-01-30T10:42:53;10.80;99.90
64634;DHT22;51043;52.406;9.690;2024-01-30T10:45:23;10.70;99.90
64634;DHT22;51043;52.406;9.690;2024-01-30T10:47:56;10.70;99.90
64634;DHT22;51043;52.406;9.690;2024-01-30T10:50:27;10.80;99.90
64634;DHT22;51043;52.406;9.690;2024-01-30T10:52:58;10.90;99.90
64634;DHT22;51043;52.406;9.690;2024-01-30T10:55:31;11.00;99.90
64634;DHT22;51043;52.406;9.690;2024-01-30T10:57:59;11.00;99.90
64634;DHT22;51043;52.406;9.690;2024-01-30T11:00:28;11.00;99.90
64634;DHT22;51043;52.406;9.690;2024-01-30T11:03:01;11.00;99.90
64634;DHT22;51043;52.406;9.690;2024-01-30T11:05:30;10.80;99.90
64634;DHT22;51043;52.406;9.690;2024-01-30T11:07:58;10.70;99.90
64634;DHT22;51043;52.406;9.690;2024-01-30T11:10:31;10.60;99.90
64634;DHT22;51043;52.406;9.690;2024-01-30T11:12:59;10.50;99.90
64634;DHT22;51043;52.406;9.690;2024-01-30T11:15:38;10.50;99.90
64634;DHT22;51043;52.406;9.690;2024-01-30T11:18:07;10.40;99.90
64634;DHT22;51043;52.406;9.690;2024-01-30T11:20:35;10.40;99.90
64634;DHT22;51043;52.406;9.690;2024-01-30T11:23:03;10.50;99.90
64634;DHT22;51043;52.406;9.690;2024-01-30T11:25:33;10.40;99.90
64634;DHT22;51043;52.406;9.690;2024-01-30T11:28:01;10.50;99.90
64634;DHT22;51043;52.406;9.690;2024-01-30T11:30:31;10.60;99.90
64634;DHT22;51043;52.406;9.690;2024-01-30T11:33:02;10.60;99.90
64634;DHT22;51043;52.406;9.690;2024-01-30T11:35:35;10.50;99.90
64634;DHT22;51043;52.406;9.690;2024-01-30T11:38:04;10.50;99.90
64634;DHT22;51043;52.406;9.690;2024-01-30T11:40:34;10.40;99.90
64634;DHT22;51043;52.406;9.690;2024-01-30T11:43:04;10.40;99.90
64634;DHT22;51043;52.406;9.690;2024-01-30T11:45:33;10.40;99.90
64634;DHT22;51043;52.406;9.690;2024-01-30T11:48:02;10.50;99.90
64634;DHT22;51043;52.406;9.690;2024-01-30T11:50:40;10.50;99.90
64634;DHT22;51043;52.406;9.690;2024-01-30T11:53:08;10.60;99.90
64634;DHT22;51043;52.406;9.690;2024-01-30T11:55:37;10.70;99.90
64634;DHT22;51043;52.406;9.690;2024-01-30T11:58:08;11.00;99.90
64634;DHT22;51043;52.406;9.690;2024-01-30T12:00:36;11.30;99.90
64634;DHT22;51043;52.406;9.690;2024-01-30T12:03:06;11.50;99.90
64634;DHT22;51043;52.406;9.690;2024-01-30T12:05:35;11.80;99.90
64634;DHT22;51043;52.406;9.690;2024-01-30T12:08:14;12.20;99.90
64634;DHT22;51043;52.406;9.690;2024-01-30T12:10:43;12.60;99.90
64634;DHT22;51043;52.406;9.690;2024-01-30T12:13:12;13.00;99.90
64634;DHT22;51043;52.406;9.690;2024-01-30T12:15:42;13.30;99.90
64634;DHT22;51043;52.406;9.690;2024-01-30T12:18:11;13.40;99.90
64634;DHT22;51043;52.406;9.690;2024-01-30T12:20:42;13.20;99.90
64634;DHT22;51043;52.406;9.690;2024-01-30T12:23:12;12.90;99.90
64634;DHT22;51043;52.406;9.690;2024-01-30T12:25:40;12.70;99.90
64634;DHT22;51043;52.406;9.690;2024-01-30T12:28:09;12.60;99.90
64634;DHT22;51043;52.406;9.690;2024-01-30T12:30:38;12.70;99.90
64634;DHT22;51043;52.406;9.690;2024-01-30T12:33:06;12.60;99.90
64634;DHT22;51043;52.406;9.690;2024-01-30T12:35:36;12.60;99.90
64634;DHT22;51043;52.406;9.690;2024-01-30T12:38:09;12.60;99.90
64634;DHT22;51043;52.406;9.690;2024-01-30T12:40:37;12.60;99.90
64634;DHT22;51043;52.406;9.690;2024-01-30T12:43:06;12.70;99.90
64634;DHT22;51043;52.406;9.690;2024-01-30T12:45:36;12.70;99.90
64634;DHT22;51043;52.406;9.690;2024-01-30T12:48:04;12.70;99.90
64634;DHT22;51043;52.406;9.690;2024-01-30T12:50:33;12.90;99.90
64634;DHT22;51043;52.406;9.690;2024-01-30T12:53:01;12.80;99.90
64634;DHT22;51043;52.406;9.690;2024-01-30T12:55:31;12.70;99.90
64634;DHT22;51043;52.406;9.690;2024-01-30T12:57:59;12.80;99.90
64634;DHT22;51043;52.406;9.690;2024-01-30T13:00:28;12.70;99.90
64634;DHT22;51043;52.406;9.690;2024-01-30T13:02:58;12.70;99.90
64634;DHT22;51043;52.406;9.690;2024-01-30T13:05:27;12.80;99.90
64634;DHT22;51043;52.406;9.690;2024-01-30T13:08:03;12.80;99.90
64634;DHT22;51043;52.406;9.690;2024-01-30T13:10:33;12.90;99.90
64634;DHT22;51043;52.406;9.690;2024-01-30T13:13:01;13.00;99.90
64634;DHT22;51043;52.406;9.690;2024-01-30T13:15:33;13.10;99.90
64634;DHT22;51043;52.406;9.690;2024-01-30T13:18:01;13.00;99.90
64634;DHT22;51043;52.406;9.690;2024-01-30T13:20:30;13.10;99.90
64634;DHT22;51043;52.406;9.690;2024-01-30T13:22:58;13.10;99.90
64634;DHT22;51043;52.406;9.690;2024-01-30T13:25:26;13.10;99.90
64634;DHT22;51043;52.406;9.690;2024-01-30T13:27:57;12.90;99.90
64634;DHT22;51043;52.406;9.690;2024-01-30T13:30:25;12.80;99.90
64634;DHT22;51043;52.406;9.690;2024-01-30T13:32:53;12.60;99.90
64634;DHT22;51043;52.406;9.690;2024-01-30T13:35:21;12.50;99.90
64634;DHT22;51043;52.406;9.690;2024-01-30T13:37:49;12.40;99.90
64634;DHT22;51043;52.406;9.690;2024-01-30T13:40:17;12.30;99.90
64634;DHT22;51043;52.406;9.690;2024-01-30T13:42:46;12.10;99.90
64634;DHT22;51043;52.406;9.690;2024-01-30T13:45:16;12.00;99.90
64634;DHT22;51043;52.406;9.690;2024-01-30T13:47:44;11.80;99.90
64634;DHT22;51043;52.406;9.690;2024-01-30T13:50:12;11.80;99.90
64634;DHT22;51043;52.406;9.690;2024-01-30T13:52:43;11.70;99.90
64634;DHT22;51043;52.406;9.690;2024-01-30T13:55:11;11.60;99.90
64634;DHT22;51043;52.406;9.690;2024-01-30T13:57:39;11.50;99.90
64634;DHT22;51043;52.406;9.690;2024-01-30T14:00:09;11.40;99.90
64634;DHT22;51043;52.406;9.690;2024-01-30T14:02:41;11.20;99.90
64634;DHT22;51043;52.406;9.690;2024-01-30T14:05:09;11.20;99.90
64634;DHT22;51043;52.406;9.690;2024-01-30T14:07:38;11.10;99.90
64634;DHT22;51043;52.406;9.690;2024-01-30T14:10:07;11.10;99.90
64634;DHT22;51043;52.406;9.690;2024-01-30T14:12:35;11.10;99.90
64634;DHT22;51043;52.406;9.690;2024-01-30T14:15:04;11.10;99.90
64634;DHT22;51043;52.406;9.690;2024-01-30T14:17:35;11.00;99.90
64634;DHT22;51043;52.406;9.690;2024-01-30T14:20:06;11.00;99.90
64634;DHT22;51043;52.406;9.690;2024-01-30T14:22:34;10.90;99.90
64634;DHT22;51043;52.406;9.690;2024-01-30T14:25:03;10.90;99.90
64634;DHT22;51043;52.406;9.690;2024-01-30T14:27:34;10.80;99.90
64634;DHT22;51043;52.406;9.690;2024-01-30T14:30:03;10.80;99.90
64634;DHT22;51043;52.406;9.690;2024-01-30T14:32:34;10.80;99.90
64634;DHT22;51043;52.406;9.690;2024-01-30T14:35:03;10.80;99.90
64634;DHT22;51043;52.406;9.690;2024-01-30T14:37:38;10.90;99.90
64634;DHT22;51043;52.406;9.690;2024-01-30T14:40:10;11.00;99.90
64634;DHT22;51043;52.406;9.690;2024-01-30T14:42:38;11.10;99.90
64634;DHT22;51043;52.406;9.690;2024-01-30T14:45:07;11.20;99.90
64634;DHT22;51043;52.406;9.690;2024-01-30T14:47:36;11.20;99.90
64634;DHT22;51043;52.406;9.690;2024-01-30T14:50:06;11.20;99.90
64634;DHT22;51043;52.406;9.690;2024-01-30T14:52:38;11.10;99.90
64634;DHT22;51043;52.406;9.690;2024-01-30T14:55:07;11.10;99.90
64634;DHT22;51043;52.406;9.690;2024-01-30T14:57:36;11.00;99.90
64634;DHT22;51043;52.406;9.690;2024-01-30T15:00:05;11.00;99.90
64634;DHT22;51043;52.406;9.690;2024-01-30T15:02:34;11.00;99.90
64634;DHT22;51043;52.406;9.690;2024-01-30T15:05:03;10.90;99.90
64634;DHT22;51043;52.406;9.690;2024-01-30T15:07:32;10.90;99.90
64634;DHT22;51043;52.406;9.690;2024-01-30T15:10:03;10.80;99.90
64634;DHT22;51043;52.406;9.690;2024-01-30T15:12:35;10.80;99.90
64634;DHT22;51043;52.406;9.690;2024-01-30T15:15:04;10.80;99.90
64634;DHT22;51043;52.406;9.690;2024-01-30T15:17:33;10.90;99.90
64634;DHT22;51043;52.406;9.690;2024-01-30T15:20:01;10.90;99.90
64634;DHT22;51043;52.406;9.690;2024-01-30T15:22:35;10.90;99.90
64634;DHT22;51043;52.406;9.690;2024-01-30T15:25:06;11.00;99.90
64634;DHT22;51043;52.406;9.690;2024-01-30T15:27:34;10.90;99.90
64634;DHT22;51043;52.406;9.690;2024-01-30T15:30:03;11.00;99.90
64634;DHT22;51043;52.406;9.690;2024-01-30T15:32:31;11.00;99.90
64634;DHT22;51043;52.406;9.690;2024-01-30T15:35:00;11.00;99.90
64634;DHT22;51043;52.406;9.690;2024-01-30T15:37:32;11.00;99.90
64634;DHT22;51043;52.406;9.690;2024-01-30T15:40:00;10.90;99.90
64634;DHT22;51043;52.406;9.690;2024-01-30T15:42:30;10.80;99.90
64634;DHT22;51043;52.406;9.690;2024-01-30T15:45:00;10.70;99.90
64634;DHT22;51043;52.406;9.690;2024-01-30T15:47:28;10.70;99.90
64634;DHT22;51043;52.406;9.690;2024-01-30T15:49:56;10.70;99.90
64634;DHT22;51043;52.406;9.690;2024-01-30T15:52:24;10.60;99.90